createdAt,value
2022-12-31T00:01:11.776Z,96420.91
2022-12-31T00:03:41.468Z,96397.06
2022-12-31T00:06:15.375Z,96432.81
2022-12-31T00:08:45.967Z,96401.53
2022-12-31T00:11:15.953Z,96424.97
2022-12-31T00:13:47.085Z,96430.47
2022-12-31T00:16:17.506Z,96415.78
2022-12-31T00:18:47.806Z,96424.47
2022-12-31T00:21:16.929Z,96429.28
2022-12-31T00:23:48.187Z,96435.06
2022-12-31T00:26:18.459Z,96439.66
2022-12-31T00:28:47.624Z,96390.50
2022-12-31T00:31:17.996Z,96415.53
2022-12-31T00:33:47.585Z,96435.63
2022-12-31T00:36:18.573Z,96439.28
2022-12-31T00:38:49.791Z,96434.44
2022-12-31T00:41:19.845Z,96439.72
2022-12-31T00:43:48.966Z,96447.47
2022-12-31T00:46:19.104Z,96440.84
2022-12-31T00:48:47.700Z,96452.25
2022-12-31T00:51:19.624Z,96448.47
2022-12-31T00:53:49.952Z,96457.75
2022-12-31T00:56:21.680Z,96464.41
2022-12-31T00:58:50.973Z,96470.16
2022-12-31T01:01:21.760Z,96462.47
2022-12-31T01:03:51.643Z,96470.56
2022-12-31T01:06:20.601Z,96480.19
2022-12-31T01:08:51.410Z,96485.72
2022-12-31T01:11:22.940Z,96481.81
2022-12-31T01:13:54.082Z,96498.63
2022-12-31T01:16:25.391Z,96488.69
2022-12-31T01:18:54.885Z,96504.56
2022-12-31T01:21:23.668Z,96505.94
2022-12-31T01:23:53.486Z,96494.66
2022-12-31T01:26:23.061Z,96486.91
2022-12-31T01:28:51.983Z,96486.66
2022-12-31T01:31:24.676Z,96496.16
2022-12-31T01:33:54.140Z,96506.56
2022-12-31T01:36:26.308Z,96511.84
2022-12-31T01:38:59.369Z,96508.78
2022-12-31T01:41:31.191Z,96515.94
2022-12-31T01:44:02.324Z,96513.81
2022-12-31T01:46:37.043Z,96518.75
2022-12-31T01:49:22.611Z,96517.44
2022-12-31T01:51:54.662Z,96526.09
2022-12-31T01:54:28.687Z,96522.38
2022-12-31T01:56:58.020Z,96528.13
2022-12-31T01:59:30.884Z,96521.63
2022-12-31T02:02:00.791Z,96533.56
2022-12-31T02:04:30.279Z,96519.19
2022-12-31T02:07:02.655Z,96503.88
2022-12-31T02:09:34.041Z,96529.94
2022-12-31T02:12:02.471Z,96520.00
2022-12-31T02:14:35.284Z,96527.31
2022-12-31T02:17:08.708Z,96535.56
2022-12-31T02:19:57.144Z,96460.88
2022-12-31T02:22:40.883Z,96530.78
2022-12-31T02:25:37.412Z,96522.13
2022-12-31T02:28:21.730Z,96453.25
2022-12-31T02:30:57.103Z,96505.78
2022-12-31T02:33:33.754Z,96526.81
2022-12-31T02:36:06.527Z,96513.75
2022-12-31T02:38:40.582Z,96524.75
2022-12-31T02:41:33.664Z,96501.75
2022-12-31T02:44:02.687Z,96493.69
2022-12-31T02:46:39.212Z,96514.84
2022-12-31T02:49:14.019Z,96521.44
2022-12-31T02:51:47.637Z,96525.25
2022-12-31T02:54:24.990Z,96523.66
2022-12-31T02:57:04.779Z,96529.69
2022-12-31T02:59:56.978Z,96541.09
2022-12-31T03:02:29.724Z,96531.88
2022-12-31T03:05:02.592Z,96540.28
2022-12-31T03:07:34.067Z,96530.00
2022-12-31T03:10:03.078Z,96529.25
2022-12-31T03:12:48.203Z,96534.72
2022-12-31T03:15:23.124Z,96536.56
2022-12-31T03:17:55.879Z,96547.56
2022-12-31T03:20:44.499Z,96550.22
2022-12-31T03:23:16.582Z,96556.88
2022-12-31T03:25:44.322Z,96533.34
2022-12-31T03:28:16.499Z,96559.09
2022-12-31T03:30:47.677Z,96541.84
2022-12-31T03:33:17.755Z,96577.38
2022-12-31T03:35:48.792Z,96578.44
2022-12-31T03:38:17.808Z,96567.81
2022-12-31T03:40:49.213Z,96528.09
2022-12-31T03:43:20.180Z,96578.50
2022-12-31T03:45:51.904Z,96565.34
2022-12-31T03:48:22.963Z,96583.72
2022-12-31T03:50:52.443Z,96571.94
2022-12-31T03:53:21.447Z,96588.38
2022-12-31T03:55:52.182Z,96570.84
2022-12-31T03:58:21.109Z,96586.22
2022-12-31T04:00:49.734Z,96590.59
2022-12-31T04:03:19.403Z,96585.16
2022-12-31T04:05:55.525Z,96564.59
2022-12-31T04:08:24.634Z,96530.88
2022-12-31T04:10:53.495Z,96592.28
2022-12-31T04:13:21.877Z,96573.13
2022-12-31T04:15:51.579Z,96583.00
2022-12-31T04:18:19.993Z,96588.44
2022-12-31T04:20:49.369Z,96542.66
2022-12-31T04:23:19.212Z,96586.56
2022-12-31T04:25:48.130Z,96586.81
2022-12-31T04:28:17.109Z,96595.78
2022-12-31T04:30:45.518Z,96596.88
2022-12-31T04:33:14.931Z,96595.78
2022-12-31T04:35:43.251Z,96596.59
2022-12-31T04:38:12.277Z,96599.31
2022-12-31T04:41:02.076Z,96600.69
2022-12-31T04:43:31.300Z,96580.56
2022-12-31T04:45:59.671Z,96602.72
2022-12-31T04:48:28.896Z,96593.47
2022-12-31T04:50:57.699Z,96592.41
2022-12-31T04:53:26.433Z,96589.13
2022-12-31T04:55:57.229Z,96601.72
2022-12-31T04:58:25.645Z,96589.75
2022-12-31T05:00:55.505Z,96578.06
2022-12-31T05:03:26.286Z,96583.75
2022-12-31T05:05:55.049Z,96586.84
2022-12-31T05:08:23.886Z,96594.41
2022-12-31T05:10:52.308Z,96605.00
2022-12-31T05:13:23.986Z,96609.34
2022-12-31T05:15:55.377Z,96593.06
2022-12-31T05:18:24.733Z,96612.00
2022-12-31T05:20:53.253Z,96604.59
2022-12-31T05:23:22.052Z,96607.91
2022-12-31T05:25:51.039Z,96611.00
2022-12-31T05:28:20.727Z,96622.59
2022-12-31T05:30:52.282Z,96635.19
2022-12-31T05:33:22.591Z,96603.22
2022-12-31T05:35:52.075Z,96622.22
2022-12-31T05:38:20.451Z,96628.78
2022-12-31T05:40:49.398Z,96626.56
2022-12-31T05:43:18.272Z,96630.75
2022-12-31T05:45:46.993Z,96633.47
2022-12-31T05:48:17.593Z,96635.19
2022-12-31T05:50:45.967Z,96616.25
2022-12-31T05:53:15.470Z,96628.09
2022-12-31T05:55:43.813Z,96632.75
2022-12-31T05:58:12.673Z,96636.69
2022-12-31T06:00:42.643Z,96624.13
2022-12-31T06:03:11.889Z,96651.16
2022-12-31T06:05:42.963Z,96639.91
2022-12-31T06:08:13.091Z,96658.03
2022-12-31T06:10:41.822Z,96665.94
2022-12-31T06:13:11.378Z,96636.69
2022-12-31T06:15:41.322Z,96658.66
2022-12-31T06:18:10.230Z,96627.50
2022-12-31T06:20:39.445Z,96647.56
2022-12-31T06:23:09.893Z,96662.28
2022-12-31T06:25:38.729Z,96624.56
2022-12-31T06:28:08.022Z,96663.47
2022-12-31T06:30:36.578Z,96658.03
2022-12-31T06:33:05.284Z,96650.91
2022-12-31T06:35:34.401Z,96651.53
2022-12-31T06:38:03.125Z,96661.00
2022-12-31T06:40:33.818Z,96663.78
2022-12-31T06:43:02.437Z,96653.63
2022-12-31T06:45:31.090Z,96671.50
2022-12-31T06:48:00.389Z,96648.47
2022-12-31T06:50:28.759Z,96666.88
2022-12-31T06:52:57.981Z,96668.84
2022-12-31T06:55:27.614Z,96684.16
2022-12-31T06:57:58.722Z,96680.34
2022-12-31T07:00:27.733Z,96679.53
2022-12-31T07:03:16.783Z,96661.16
2022-12-31T07:05:48.210Z,96665.66
2022-12-31T07:08:29.667Z,96679.38
2022-12-31T07:11:06.404Z,96681.50
2022-12-31T07:14:13.018Z,96681.50
2022-12-31T07:16:51.903Z,96676.75
2022-12-31T07:19:30.533Z,96687.44
2022-12-31T07:22:00.696Z,96684.16
2022-12-31T07:24:29.830Z,96701.97
2022-12-31T07:27:15.708Z,96684.16
2022-12-31T07:30:05.988Z,96702.78
2022-12-31T07:32:59.751Z,96689.63
2022-12-31T07:35:41.348Z,96719.13
2022-12-31T07:38:20.787Z,96705.38
2022-12-31T07:41:07.286Z,96712.53
2022-12-31T07:43:52.871Z,96715.59
2022-12-31T07:46:35.128Z,96731.13
2022-12-31T07:49:07.810Z,96734.34
2022-12-31T07:51:41.365Z,96729.72
2022-12-31T07:54:14.372Z,96739.28
2022-12-31T07:56:48.871Z,96725.66
2022-12-31T07:59:35.756Z,96736.34
2022-12-31T08:02:45.845Z,96737.47
2022-12-31T08:05:29.955Z,96740.97
2022-12-31T08:08:24.783Z,96743.94
2022-12-31T08:11:03.828Z,96751.94
2022-12-31T08:13:51.211Z,96690.69
2022-12-31T08:16:27.904Z,96750.03
2022-12-31T08:19:01.077Z,96763.16
2022-12-31T08:21:44.361Z,96754.38
2022-12-31T08:24:24.035Z,96757.38
2022-12-31T08:26:59.420Z,96763.66
2022-12-31T08:29:37.406Z,96760.09
2022-12-31T08:32:14.270Z,96765.53
2022-12-31T08:34:54.139Z,96775.69
2022-12-31T08:37:33.290Z,96762.81
2022-12-31T08:40:14.892Z,96778.44
2022-12-31T08:42:57.736Z,96775.72
2022-12-31T08:45:35.905Z,96764.72
2022-12-31T08:48:13.922Z,96763.16
2022-12-31T08:50:47.659Z,96770.03
2022-12-31T08:53:17.681Z,96761.81
2022-12-31T08:55:52.431Z,96763.84
2022-12-31T08:58:42.692Z,96776.34
2022-12-31T09:01:15.595Z,96765.16
2022-12-31T09:07:38.736Z,96785.84
2022-12-31T09:10:35.106Z,96787.06
2022-12-31T09:13:24.499Z,96790.00
2022-12-31T09:16:22.042Z,96795.28
2022-12-31T09:22:02.308Z,96775.59
2022-12-31T09:29:09.800Z,96782.88
2022-12-31T09:35:52.827Z,96783.09
2022-12-31T09:38:31.337Z,96760.28
2022-12-31T10:12:04.632Z,96750.50
2022-12-31T10:18:19.850Z,96735.66
2022-12-31T10:21:13.790Z,96749.03
2022-12-31T10:23:59.810Z,96729.00
2022-12-31T10:26:49.850Z,96774.72
2022-12-31T10:29:33.179Z,96767.06
2022-12-31T10:32:17.715Z,96736.63
2022-12-31T10:34:56.381Z,96720.16
2022-12-31T10:37:30.994Z,96762.56
2022-12-31T11:28:31.987Z,96788.34
2022-12-31T11:31:19.355Z,96765.34
2022-12-31T11:34:02.634Z,96773.84
2022-12-31T11:36:43.078Z,96778.78
2022-12-31T11:39:31.496Z,96756.38
2022-12-31T11:42:06.166Z,96767.09
2022-12-31T11:44:47.596Z,96766.84
2022-12-31T11:47:41.211Z,96779.94
2022-12-31T11:50:34.078Z,96758.88
2022-12-31T11:53:34.203Z,96762.47
2022-12-31T11:56:16.448Z,96756.19
2022-12-31T11:58:49.630Z,96764.16
2022-12-31T12:01:26.122Z,96752.44
2022-12-31T12:03:55.324Z,96749.75
2022-12-31T12:06:28.965Z,96756.31
2022-12-31T12:13:36.494Z,96762.81
2022-12-31T12:16:09.191Z,96727.09
2022-12-31T12:18:45.192Z,96656.00
2022-12-31T12:21:17.440Z,96743.81
2022-12-31T12:23:57.126Z,96681.75
2022-12-31T12:26:29.252Z,96677.09
2022-12-31T12:29:01.747Z,96734.25
2022-12-31T12:31:30.585Z,96721.66
2022-12-31T12:34:01.164Z,96725.22
2022-12-31T12:36:29.955Z,96715.09
2022-12-31T12:39:04.683Z,96713.72
2022-12-31T12:41:33.387Z,96718.34
2022-12-31T12:44:09.781Z,96725.72
2022-12-31T12:46:48.187Z,96724.66
2022-12-31T12:49:24.643Z,96726.28
2022-12-31T12:52:10.632Z,96706.28
2022-12-31T12:54:55.309Z,96707.88
2022-12-31T12:57:34.840Z,96718.81
2022-12-31T13:00:10.752Z,96710.66
2022-12-31T13:03:14.633Z,96706.84
2022-12-31T13:05:57.506Z,96706.59
2022-12-31T13:08:42.332Z,96713.16
2022-12-31T13:11:27.764Z,96709.06
2022-12-31T13:14:05.108Z,96712.38
2022-12-31T13:16:41.493Z,96697.59
2022-12-31T13:19:20.326Z,96702.53
2022-12-31T13:21:58.971Z,96690.50
2022-12-31T13:24:43.612Z,96699.78
2022-12-31T13:27:19.815Z,96698.16
2022-12-31T13:29:50.509Z,96704.72
2022-12-31T13:32:24.740Z,96698.97
2022-12-31T13:34:58.994Z,96693.22
2022-12-31T13:37:35.392Z,96696.78
2022-12-31T13:40:14.325Z,96701.69
2022-12-31T13:42:49.555Z,96698.66
2022-12-31T13:45:26.461Z,96701.97
2022-12-31T13:48:00.100Z,96715.09
2022-12-31T13:50:35.853Z,96722.44
2022-12-31T13:53:15.189Z,96712.88
2022-12-31T13:55:55.070Z,96710.44
2022-12-31T13:58:34.221Z,96714.25
2022-12-31T14:01:13.381Z,96721.66
2022-12-31T14:03:50.482Z,96709.59
2022-12-31T14:06:30.549Z,96721.13
2022-12-31T14:09:00.984Z,96712.38
2022-12-31T14:11:48.228Z,96721.13
2022-12-31T14:14:31.868Z,96720.00
2022-12-31T14:17:07.943Z,96715.91
2022-12-31T14:19:49.219Z,96723.84
2022-12-31T14:22:24.442Z,96714.53
2022-12-31T14:24:57.125Z,96716.72
2022-12-31T14:27:31.493Z,96722.94
2022-12-31T14:30:03.060Z,96720.19
2022-12-31T14:32:52.340Z,96698.28
2022-12-31T14:35:52.037Z,96722.63
2022-12-31T14:38:31.933Z,96721.78
2022-12-31T14:41:13.695Z,96725.53
2022-12-31T14:43:52.793Z,96731.50
2022-12-31T14:46:30.887Z,96732.56
2022-12-31T14:49:12.791Z,96720.50
2022-12-31T14:51:41.524Z,96728.97
2022-12-31T14:54:29.111Z,96731.66
2022-12-31T14:57:15.717Z,96728.06
2022-12-31T14:59:56.303Z,96724.41
2022-12-31T15:02:39.798Z,96725.72
2022-12-31T15:05:20.439Z,96729.28
2022-12-31T15:08:04.938Z,96732.50
2022-12-31T15:10:43.876Z,96731.69
2022-12-31T15:13:29.427Z,96724.28
2022-12-31T15:16:15.062Z,96731.63
2022-12-31T15:19:17.565Z,96734.53
2022-12-31T15:21:57.421Z,96735.84
2022-12-31T15:24:30.793Z,96741.50
2022-12-31T15:27:06.906Z,96735.38
2022-12-31T15:29:46.019Z,96735.88
2022-12-31T15:43:18.498Z,96749.88
2022-12-31T15:45:49.535Z,96744.44
2022-12-31T15:48:28.524Z,96746.91
2022-12-31T15:51:00.831Z,96743.56
2022-12-31T15:53:33.964Z,96743.50
2022-12-31T15:56:03.883Z,96752.91
2022-12-31T16:02:00.339Z,96743.06
2022-12-31T16:04:33.467Z,96744.84
2022-12-31T16:19:35.262Z,96761.09
